Time;durP1;ratioP1;P1;durP2;ratioP2;P2;SDS_P1;SDS_P2;PMS_P1;PMS_P2;Temp;Humidity;BMP_temperature;BMP_pressure;BME280_temperature;BME280_humidity;BME280_pressure;Samples;Min_cycle;Max_cycle;Signal;HPM_P1;HPM_P2
2022/12/13 00:01:32;;;;;;;62.13;30.60;;;-3.20;99.90;;;;;;5053052;28;20517;-55
2022/12/13 00:04:01;;;;;;;64.72;32.55;;;-3.30;99.90;;;;;;5051675;28;20041;-55
2022/12/13 00:06:28;;;;;;;59.13;27.77;;;-3.30;99.90;;;;;;5045440;28;20048;-55
2022/12/13 00:08:54;;;;;;;59.33;29.50;;;-3.40;99.90;;;;;;5032445;28;20033;-55
2022/12/13 00:11:20;;;;;;;51.63;27.60;;;-3.40;99.90;;;;;;5032456;28;20037;-54
2022/12/13 00:13:46;;;;;;;57.38;29.48;;;-3.50;99.90;;;;;;5031343;28;20037;-56
2022/12/13 00:16:14;;;;;;;;;;;-3.50;99.90;;;;;;5032363;28;20049;-55
2022/12/13 00:18:40;;;;;;;51.53;27.50;;;-3.40;99.90;;;;;;5032274;28;19991;-53
2022/12/13 00:21:08;;;;;;;60.40;29.67;;;-3.50;99.90;;;;;;5032127;28;20044;-52
2022/12/13 00:23:34;;;;;;;71.25;31.20;;;-3.50;99.90;;;;;;5031113;28;20451;-51
2022/12/13 00:26:08;;;;;;;62.20;31.95;;;-3.50;99.90;;;;;;5031157;28;20049;-52
2022/12/13 00:28:34;;;;;;;68.40;32.10;;;-3.50;99.90;;;;;;5031393;28;20045;-53
2022/12/13 00:31:00;;;;;;;60.00;31.43;;;-3.50;99.90;;;;;;5032340;28;20055;-53
2022/12/13 00:33:27;;;;;;;68.00;31.98;;;-3.50;99.90;;;;;;5031591;28;20044;-54
2022/12/13 00:35:53;;;;;;;67.53;33.42;;;-3.60;99.90;;;;;;5032297;28;20513;-54
2022/12/13 00:38:19;;;;;;;71.10;33.15;;;-3.50;99.90;;;;;;5031982;28;20045;-52
2022/12/13 00:40:44;;;;;;;65.13;32.13;;;-3.50;99.90;;;;;;5032055;28;20041;-52
2022/12/13 00:43:10;;;;;;;73.53;35.80;;;-3.60;99.90;;;;;;5039538;28;20391;-51
2022/12/13 00:45:37;;;;;;;72.33;35.57;;;-3.50;99.90;;;;;;5052041;28;20067;-51
2022/12/13 00:48:03;;;;;;;76.95;35.00;;;-3.60;99.90;;;;;;5051348;28;20076;-52
2022/12/13 00:50:29;;;;;;;71.43;36.17;;;-3.50;99.90;;;;;;5051732;28;20048;-53
2022/12/13 00:52:54;;;;;;;72.43;37.13;;;-3.50;99.90;;;;;;5050056;28;20402;-54
2022/12/13 00:55:20;;;;;;;82.00;36.93;;;-3.50;99.90;;;;;;5050916;28;20037;-52
2022/12/13 00:57:45;;;;;;;68.87;36.57;;;-3.60;99.90;;;;;;5049793;28;20451;-51
2022/12/13 01:00:11;;;;;;;77.97;38.10;;;-3.60;99.90;;;;;;5031608;28;20423;-52
2022/12/13 01:02:37;;;;;;;80.00;35.93;;;-3.60;99.90;;;;;;5030157;28;20064;-54
2022/12/13 01:05:03;;;;;;;70.47;36.47;;;-3.70;99.90;;;;;;5030801;28;20045;-54
2022/12/13 01:07:29;;;;;;;71.35;35.88;;;-3.70;99.90;;;;;;5031017;28;20037;-53
2022/12/13 01:09:56;;;;;;;75.40;36.97;;;-3.70;99.90;;;;;;5031814;28;20096;-51
2022/12/13 01:12:22;;;;;;;77.57;38.58;;;-3.70;99.90;;;;;;5050537;28;20033;-52
2022/12/13 01:14:48;;;;;;;73.03;36.27;;;-3.70;99.90;;;;;;5050248;28;20044;-54
2022/12/13 01:17:13;;;;;;;78.60;37.10;;;-3.70;99.90;;;;;;5050685;28;20106;-53
2022/12/13 01:19:39;;;;;;;70.13;36.57;;;-3.70;99.90;;;;;;5051006;28;20037;-55
2022/12/13 01:22:06;;;;;;;74.20;38.87;;;-3.70;99.90;;;;;;5051001;28;20095;-55
2022/12/13 01:24:32;;;;;;;76.88;36.55;;;-3.70;99.90;;;;;;5049713;28;20044;-54
2022/12/13 01:26:58;;;;;;;76.75;36.85;;;-3.70;99.90;;;;;;5050194;28;20044;-56
2022/12/13 01:29:25;;;;;;;76.55;37.55;;;-3.70;99.90;;;;;;5050934;28;20036;-55
2022/12/13 01:31:51;;;;;;;66.88;33.45;;;-3.70;99.90;;;;;;5083432;28;20115;-54
2022/12/13 01:34:18;;;;;;;64.68;31.58;;;-3.70;99.90;;;;;;5049769;28;20124;-54
2022/12/13 01:36:45;;;;;;;76.18;36.92;;;-3.80;99.90;;;;;;5050450;28;20499;-56
2022/12/13 01:39:13;;;;;;;69.95;36.35;;;-3.80;99.90;;;;;;5050068;28;20051;-55
2022/12/13 01:41:39;;;;;;;71.80;35.20;;;-3.80;99.90;;;;;;5050346;28;20864;-55
2022/12/13 01:44:42;;;;;;;65.75;34.05;;;-3.80;99.90;;;;;;5049554;28;20044;-55
2022/12/13 01:47:08;;;;;;;71.05;38.00;;;-3.90;99.90;;;;;;5043940;28;20474;-52
2022/12/13 01:49:34;;;;;;;76.40;38.08;;;-3.90;99.90;;;;;;5030500;28;20226;-51
2022/12/13 01:52:05;;;;;;;71.72;33.85;;;-3.80;99.90;;;;;;5030007;28;20120;-51
2022/12/13 01:54:36;;;;;;;67.25;33.10;;;-3.80;99.90;;;;;;5028143;28;20045;-53
2022/12/13 01:57:05;;;;;;;61.53;29.70;;;-3.80;99.90;;;;;;5045678;28;20047;-52
2022/12/13 01:59:36;;;;;;;61.45;32.05;;;-3.90;99.90;;;;;;5050081;28;20028;-54
2022/12/13 02:02:02;;;;;;;64.53;33.53;;;-4.00;99.90;;;;;;5048847;28;20037;-53
2022/12/13 02:04:36;;;;;;;66.63;33.95;;;-4.00;99.90;;;;;;5048542;28;20041;-52
2022/12/13 02:07:02;;;;;;;67.95;33.72;;;-4.00;99.90;;;;;;5050099;28;20442;-52
2022/12/13 02:09:28;;;;;;;72.13;34.70;;;-4.00;99.90;;;;;;5031708;28;20442;-51
2022/12/13 02:11:54;;;;;;;66.00;36.08;;;-4.00;99.90;;;;;;5030339;28;20045;-53
2022/12/13 02:14:20;;;;;;;69.32;34.58;;;-4.00;99.90;;;;;;5029039;28;20486;-53
2022/12/13 02:17:07;;;;;;;70.70;34.60;;;-4.00;99.90;;;;;;5029935;28;20052;-51
2022/12/13 02:20:09;;;;;;;68.63;33.17;;;-4.00;99.90;;;;;;5031073;28;20033;-53
2022/12/13 02:23:16;;;;;;;67.18;33.35;;;-4.00;99.90;;;;;;5049941;28;20103;-52
2022/12/13 02:26:17;;;;;;;73.38;34.13;;;-4.10;99.90;;;;;;5048103;28;20131;-52
2022/12/13 02:29:05;;;;;;;70.68;32.38;;;-4.10;99.90;;;;;;5049729;28;20348;-53
2022/12/13 02:31:57;;;;;;;69.35;32.38;;;-4.20;99.90;;;;;;5049498;28;20055;-54
2022/12/13 02:34:29;;;;;;;64.30;32.40;;;-4.20;99.90;;;;;;5049216;28;20123;-51
2022/12/13 02:37:19;;;;;;;72.65;34.58;;;-4.20;99.90;;;;;;5049825;28;20055;-51
2022/12/13 02:39:55;;;;;;;70.07;34.78;;;-4.20;99.90;;;;;;5049412;28;20041;-53
2022/12/13 02:42:26;;;;;;;59.67;31.15;;;-4.20;99.90;;;;;;5050141;28;20494;-52
2022/12/13 02:45:23;;;;;;;60.85;31.25;;;-4.30;99.90;;;;;;5049021;28;20091;-52
2022/12/13 02:47:53;;;;;;;69.60;34.60;;;-4.40;99.90;;;;;;5048887;28;20041;-54
2022/12/13 02:50:20;;;;;;;61.03;32.35;;;-4.30;99.90;;;;;;5049467;28;20037;-55
2022/12/13 02:52:47;;;;;;;70.95;33.47;;;-4.30;99.90;;;;;;5048523;28;20041;-51
2022/12/13 02:55:15;;;;;;;71.05;33.88;;;-4.30;99.90;;;;;;5049579;28;20037;-56
2022/12/13 02:57:43;;;;;;;68.20;33.78;;;-4.30;99.90;;;;;;5035126;28;20086;-54
2022/12/13 03:00:13;;;;;;;80.78;39.22;;;-4.20;99.90;;;;;;5029688;28;20041;-55
2022/12/13 03:02:42;;;;;;;70.78;34.25;;;-4.20;99.90;;;;;;5032269;28;20045;-54
2022/12/13 03:08:24;;;;;;;75.95;34.40;;;-4.20;99.90;;;;;;5049464;28;20052;-55
2022/12/13 03:10:54;;;;;;;68.15;34.80;;;-4.20;99.90;;;;;;5029328;28;20037;-55
2022/12/13 03:13:50;;;;;;;72.35;36.45;;;-4.20;99.90;;;;;;5028956;28;20449;-55
2022/12/13 03:16:20;;;;;;;69.07;32.13;;;-4.20;99.90;;;;;;5028662;28;20514;-51
2022/12/13 03:18:46;;;;;;;70.47;35.70;;;-4.20;99.90;;;;;;5028497;28;20483;-52
2022/12/13 03:21:12;;;;;;;74.82;37.83;;;-4.30;99.90;;;;;;5032968;28;20052;-52
2022/12/13 03:23:38;;;;;;;74.83;35.97;;;-4.30;99.90;;;;;;5048327;28;20044;-51
2022/12/13 03:26:25;;;;;;;70.90;34.80;;;-4.20;99.90;;;;;;5049213;28;20044;-53
2022/12/13 03:28:51;;;;;;;65.45;31.73;;;-4.30;99.90;;;;;;5048866;28;20494;-53
2022/12/13 03:31:16;;;;;;;72.97;34.65;;;-4.30;99.90;;;;;;5049145;28;20044;-51
2022/12/13 03:33:42;;;;;;;69.87;35.07;;;-4.40;99.90;;;;;;5047702;28;20094;-51
2022/12/13 03:36:09;;;;;;;74.23;33.97;;;-4.40;99.90;;;;;;5049314;28;20124;-52
2022/12/13 03:38:35;;;;;;;70.93;34.90;;;-4.40;99.90;;;;;;5048897;28;20280;-51
2022/12/13 03:41:07;;;;;;;70.07;36.97;;;-4.40;99.90;;;;;;5048953;28;20135;-51
2022/12/13 03:43:33;;;;;;;73.00;37.70;;;-4.30;99.90;;;;;;5048616;28;20056;-51
2022/12/13 03:46:00;;;;;;;76.30;36.30;;;-4.30;99.90;;;;;;5080997;28;20049;-53
2022/12/13 03:48:25;;;;;;;;;;;-4.20;99.90;;;;;;5049360;28;20140;-50
2022/12/13 03:50:52;;;;;;;74.43;35.67;;;-4.30;99.90;;;;;;5049057;28;20007;-51
2022/12/13 03:53:18;;;;;;;76.20;38.90;;;-4.20;99.90;;;;;;5048013;28;20039;-52
2022/12/13 03:55:44;;;;;;;75.53;36.97;;;-4.20;99.90;;;;;;5047831;28;20076;-51
2022/12/13 03:58:09;;;;;;;76.57;34.83;;;-4.20;99.90;;;;;;5040019;28;20073;-51
2022/12/13 04:00:35;;;;;;;76.43;36.17;;;-4.30;99.90;;;;;;5030089;28;20038;-51
2022/12/13 04:03:01;;;;;;;71.03;34.67;;;-4.30;99.90;;;;;;5031115;28;20041;-53
2022/12/13 04:05:27;;;;;;;68.40;37.53;;;-4.40;99.90;;;;;;5032722;28;20512;-51
2022/12/13 04:07:53;;;;;;;76.20;35.47;;;-4.40;99.90;;;;;;5031144;28;20053;-51
2022/12/13 04:10:18;;;;;;;70.37;34.90;;;-4.40;99.90;;;;;;5031239;28;20091;-54
2022/12/13 04:15:28;;;;;;;65.28;32.97;;;-4.50;99.90;;;;;;5032000;28;20057;-54
2022/12/13 04:17:54;;;;;;;74.50;34.93;;;-4.50;99.90;;;;;;5031944;28;20041;-53
2022/12/13 04:20:19;;;;;;;70.43;34.63;;;-4.50;99.90;;;;;;5032485;28;20247;-55
2022/12/13 04:22:45;;;;;;;69.10;35.67;;;-4.50;99.90;;;;;;5030878;28;20831;-55
2022/12/13 04:25:11;;;;;;;75.83;36.17;;;-4.50;99.90;;;;;;5031410;28;20038;-53
2022/12/13 04:27:37;;;;;;;72.38;35.85;;;-4.50;99.90;;;;;;5031570;28;20050;-55
2022/12/13 04:30:04;;;;;;;69.97;36.33;;;-4.60;99.90;;;;;;5032269;28;20045;-53
2022/12/13 04:32:29;;;;;;;79.50;36.22;;;-4.60;99.90;;;;;;5032045;28;20077;-55
2022/12/13 04:34:55;;;;;;;75.63;34.93;;;-4.70;99.90;;;;;;5031190;28;20459;-55
2022/12/13 04:37:20;;;;;;;79.27;37.10;;;-4.70;99.90;;;;;;5031674;28;20088;-54
2022/12/13 04:39:46;;;;;;;78.63;38.77;;;-4.70;99.90;;;;;;5032377;28;20498;-51
2022/12/13 04:42:12;;;;;;;78.87;38.70;;;-4.60;99.90;;;;;;5031656;28;20132;-51
2022/12/13 04:44:37;;;;;;;81.03;41.00;;;-4.70;99.90;;;;;;5030897;28;20080;-51
2022/12/13 04:47:03;;;;;;;84.63;39.37;;;-4.70;99.90;;;;;;5031417;28;20034;-53
2022/12/13 04:49:29;;;;;;;76.10;37.38;;;-4.60;99.90;;;;;;5031762;28;20049;-52
2022/12/13 04:51:55;;;;;;;84.25;38.95;;;-4.60;99.90;;;;;;5030600;28;20050;-51
2022/12/13 04:54:21;;;;;;;84.80;44.27;;;-4.60;99.90;;;;;;5030667;28;20529;-52
2022/12/13 04:56:46;;;;;;;79.13;41.07;;;-4.60;99.90;;;;;;5031684;28;20442;-52
2022/12/13 04:59:12;;;;;;;82.70;38.40;;;-4.60;99.90;;;;;;5047933;28;20555;-54
2022/12/13 05:01:37;;;;;;;86.97;40.50;;;-4.60;99.90;;;;;;5051842;28;20418;-55
2022/12/13 05:04:03;;;;;;;88.90;42.70;;;-4.60;99.90;;;;;;5050615;28;20041;-53
2022/12/13 05:06:29;;;;;;;91.53;43.13;;;-4.60;99.90;;;;;;5052092;28;20155;-51
2022/12/13 05:08:54;;;;;;;85.50;39.83;;;-4.60;99.90;;;;;;5049983;28;20037;-53
2022/12/13 05:11:20;;;;;;;89.00;43.08;;;-4.60;99.90;;;;;;5050881;28;20029;-52
2022/12/13 05:13:46;;;;;;;87.53;40.78;;;-4.60;99.90;;;;;;5049865;28;20057;-51
2022/12/13 05:16:12;;;;;;;93.20;44.13;;;-4.60;99.90;;;;;;5051380;28;20379;-52
2022/12/13 05:18:37;;;;;;;89.43;44.50;;;-4.60;99.90;;;;;;5050595;28;20044;-53
2022/12/13 05:21:09;;;;;;;95.60;42.57;;;-4.60;99.90;;;;;;5051130;28;20267;-54
2022/12/13 05:23:35;;;;;;;88.85;43.78;;;-4.60;99.90;;;;;;5049833;28;20307;-53
2022/12/13 05:26:01;;;;;;;90.00;41.85;;;-4.60;99.90;;;;;;5050782;28;20430;-52
2022/12/13 05:28:28;;;;;;;95.78;41.05;;;-4.70;99.90;;;;;;5050641;28;20072;-53
2022/12/13 05:30:55;;;;;;;;;;;-4.60;99.90;;;;;;5051132;28;20417;-55
2022/12/13 05:33:22;;;;;;;90.43;41.33;;;-4.70;99.90;;;;;;5049896;28;19925;-54
2022/12/13 05:35:47;;;;;;;88.88;41.22;;;-4.80;99.90;;;;;;5050876;28;20272;-55
2022/12/13 05:38:13;;;;;;;85.20;41.20;;;-4.80;99.90;;;;;;5050389;28;20298;-53
2022/12/13 05:40:38;;;;;;;89.03;41.10;;;-4.80;99.90;;;;;;5050409;28;20041;-54
2022/12/13 05:43:04;;;;;;;92.50;40.23;;;-4.80;99.90;;;;;;5049356;28;20044;-55
2022/12/13 05:45:30;;;;;;;92.43;42.43;;;-4.90;99.90;;;;;;5082797;28;20045;-53
2022/12/13 05:47:56;;;;;;;87.03;41.80;;;-4.80;99.90;;;;;;5082441;28;20084;-55
2022/12/13 05:50:22;;;;;;;82.00;41.47;;;-4.90;99.90;;;;;;5050608;28;20051;-56
2022/12/13 05:52:48;;;;;;;87.07;41.92;;;-5.00;99.90;;;;;;5050354;28;20558;-54
2022/12/13 05:55:14;;;;;;;84.50;43.00;;;-5.10;99.90;;;;;;5048551;28;20045;-54
2022/12/13 05:57:39;;;;;;;80.57;40.13;;;-5.20;99.90;;;;;;5045726;28;20049;-54
2022/12/13 06:00:07;;;;;;;87.07;40.90;;;-5.20;99.90;;;;;;5030458;28;20041;-51
2022/12/13 06:02:37;;;;;;;86.68;40.13;;;-5.20;99.90;;;;;;5030329;28;20045;-50
2022/12/13 06:05:04;;;;;;;86.47;44.13;;;-5.20;99.90;;;;;;5027830;28;20103;-54
2022/12/13 06:07:30;;;;;;;85.80;41.20;;;-5.30;99.90;;;;;;5028376;28;20581;-51
2022/12/13 06:09:56;;;;;;;84.68;40.38;;;-5.30;99.90;;;;;;5029804;28;20132;-52
2022/12/13 06:12:21;;;;;;;86.40;42.27;;;-5.30;99.90;;;;;;5030433;28;20038;-52
2022/12/13 06:14:47;;;;;;;78.73;41.57;;;-5.30;99.90;;;;;;5029168;28;20772;-52
2022/12/13 06:17:13;;;;;;;85.80;38.07;;;-5.30;99.90;;;;;;5029806;28;20045;-52
2022/12/13 06:19:38;;;;;;;81.37;40.73;;;-5.30;99.90;;;;;;5030217;28;20434;-51
2022/12/13 06:22:04;;;;;;;84.47;40.27;;;-5.30;99.90;;;;;;5045068;28;20037;-52
2022/12/13 06:24:30;;;;;;;89.40;42.67;;;-5.40;99.90;;;;;;5027891;28;20402;-51
2022/12/13 06:26:55;;;;;;;89.07;41.17;;;-5.40;99.90;;;;;;5030027;28;20462;-53
2022/12/13 06:29:22;;;;;;;79.30;37.93;;;-5.50;99.90;;;;;;5029744;28;20172;-51
2022/12/13 06:31:50;;;;;;;;;;;-5.60;99.90;;;;;;5030521;28;20049;-51
2022/12/13 06:34:16;;;;;;;77.85;37.00;;;-5.60;99.90;;;;;;5028772;28;19921;-51
2022/12/13 06:36:42;;;;;;;77.27;34.83;;;-5.70;99.90;;;;;;5030445;28;20045;-55
2022/12/13 06:39:07;;;;;;;74.33;36.37;;;-5.70;99.90;;;;;;5029037;28;20041;-51
2022/12/13 06:41:33;;;;;;;79.23;38.83;;;-5.70;99.90;;;;;;5030057;28;20398;-54
2022/12/13 06:43:59;;;;;;;82.15;39.55;;;-5.70;99.90;;;;;;5029002;28;20124;-50
2022/12/13 06:46:25;;;;;;;80.32;37.70;;;-5.80;99.90;;;;;;5029524;28;20140;-52
2022/12/13 06:48:51;;;;;;;81.23;39.30;;;-5.80;99.90;;;;;;5029661;28;20060;-53
2022/12/13 06:51:17;;;;;;;87.50;39.75;;;-5.80;99.90;;;;;;5030012;28;20037;-55
2022/12/13 06:53:43;;;;;;;78.00;38.65;;;-5.80;99.90;;;;;;5028592;28;20494;-51
2022/12/13 06:56:13;;;;;;;78.23;39.43;;;-5.80;99.90;;;;;;5061981;28;20049;-53
2022/12/13 06:58:40;;;;;;;88.50;41.90;;;-5.80;99.90;;;;;;5041700;28;20127;-54
2022/12/13 07:01:13;;;;;;;86.75;40.13;;;-5.90;99.90;;;;;;5048946;28;20032;-53
2022/12/13 07:03:39;;;;;;;86.63;39.33;;;-5.90;99.90;;;;;;5048713;28;20036;-55
2022/12/13 07:06:15;;;;;;;92.38;40.70;;;-5.90;99.90;;;;;;5048718;28;20041;-53
2022/12/13 07:08:42;;;;;;;101.90;43.85;;;-6.00;99.90;;;;;;5047671;28;20115;-55
2022/12/13 07:11:14;;;;;;;95.88;43.50;;;-6.00;99.90;;;;;;5048000;28;20048;-55
2022/12/13 07:13:40;;;;;;;106.60;44.72;;;-6.00;99.90;;;;;;5048452;28;20043;-56
2022/12/13 07:16:06;;;;;;;114.78;48.00;;;-6.00;99.90;;;;;;5049361;28;20632;-56
2022/12/13 07:18:31;;;;;;;124.43;50.67;;;-6.00;99.90;;;;;;5048816;28;20037;-55
2022/12/13 07:20:57;;;;;;;118.63;46.43;;;-6.00;99.90;;;;;;5049057;28;20040;-55
2022/12/13 07:23:22;;;;;;;111.50;48.07;;;-6.10;99.90;;;;;;5047265;28;20548;-50
2022/12/13 07:25:53;;;;;;;103.37;43.93;;;-6.00;99.90;;;;;;5049023;28;20417;-52
2022/12/13 07:28:19;;;;;;;92.75;41.03;;;-6.00;99.90;;;;;;5041786;28;20033;-52
2022/12/13 07:30:45;;;;;;;102.93;41.38;;;-6.00;99.90;;;;;;5046851;28;20033;-51
2022/12/13 07:33:12;;;;;;;104.37;45.17;;;-6.00;99.90;;;;;;5047371;28;20063;-52
2022/12/13 07:35:38;;;;;;;103.78;44.50;;;-6.00;99.90;;;;;;5052399;28;20044;-52
2022/12/13 07:38:05;;;;;;;95.15;43.95;;;-6.00;99.90;;;;;;5052611;28;20122;-53
2022/12/13 07:40:36;;;;;;;93.63;43.60;;;-6.00;99.90;;;;;;5051474;28;20048;-52
2022/12/13 07:43:02;;;;;;;90.93;43.95;;;-5.90;99.90;;;;;;5051515;28;20037;-53
2022/12/13 07:45:28;;;;;;;104.38;41.03;;;-6.00;99.90;;;;;;5048302;28;20068;-53
2022/12/13 07:47:53;;;;;;;101.33;43.07;;;-5.90;99.90;;;;;;5050927;28;20033;-52
2022/12/13 07:50:20;;;;;;;114.38;45.70;;;-5.90;99.90;;;;;;5048427;28;20033;-53
2022/12/13 07:52:49;;;;;;;121.38;47.42;;;-5.90;99.90;;;;;;5050913;28;20116;-51
2022/12/13 07:55:16;;;;;;;122.03;45.40;;;-5.90;99.90;;;;;;5050850;28;20041;-52
2022/12/13 07:57:43;;;;;;;108.32;44.25;;;-5.90;99.90;;;;;;5051006;28;20052;-52
2022/12/13 08:00:10;;;;;;;114.00;44.35;;;-5.90;99.90;;;;;;5049915;28;20128;-52
2022/12/13 08:02:35;;;;;;;;;;;-5.80;99.90;;;;;;5051985;28;20143;-54
2022/12/13 08:05:01;;;;;;;104.07;41.58;;;-5.80;99.90;;;;;;5048618;28;20031;-53
2022/12/13 08:07:26;;;;;;;94.97;40.60;;;-5.80;99.90;;;;;;5048373;28;20037;-55
2022/12/13 08:09:54;;;;;;;98.13;43.47;;;-5.70;99.90;;;;;;5050197;28;20052;-51
2022/12/13 08:12:19;;;;;;;92.80;41.03;;;-5.80;99.90;;;;;;5050464;28;20048;-51
2022/12/13 08:14:45;;;;;;;99.90;43.83;;;-5.70;99.90;;;;;;5048766;28;20518;-53
2022/12/13 08:17:11;;;;;;;111.03;45.33;;;-5.70;99.90;;;;;;5048900;28;20513;-51
2022/12/13 08:19:37;;;;;;;110.03;46.83;;;-5.60;99.90;;;;;;5048853;28;20048;-50
2022/12/13 08:22:03;;;;;;;100.68;46.03;;;-5.60;99.90;;;;;;5051623;28;20033;-50
2022/12/13 08:24:29;;;;;;;98.53;45.17;;;-5.50;99.90;;;;;;5050672;28;20040;-50
2022/12/13 08:26:59;;;;;;;123.78;47.10;;;-5.50;99.90;;;;;;5046110;28;20036;-51
2022/12/13 08:29:25;;;;;;;117.63;43.80;;;-5.40;99.90;;;;;;5049344;28;20079;-51
2022/12/13 08:31:51;;;;;;;128.02;45.85;;;-5.40;99.90;;;;;;5047695;28;20102;-54
2022/12/13 08:34:16;;;;;;;100.80;44.17;;;-5.30;99.90;;;;;;5049778;28;20033;-54
2022/12/13 08:36:42;;;;;;;130.03;48.60;;;-5.20;99.90;;;;;;5050661;28;20037;-52
2022/12/13 08:39:07;;;;;;;106.27;45.63;;;-5.20;99.90;;;;;;5048084;28;20037;-51
2022/12/13 08:41:33;;;;;;;91.10;44.10;;;-5.10;99.90;;;;;;5049215;28;20405;-52
2022/12/13 08:43:58;;;;;;;78.37;38.40;;;-5.00;99.90;;;;;;5079742;28;20044;-55
2022/12/13 08:46:24;;;;;;;87.77;41.30;;;-4.70;99.90;;;;;;5047547;28;20161;-55
2022/12/13 08:48:52;;;;;;;77.60;36.03;;;-4.40;99.90;;;;;;5049426;28;21535;-55
2022/12/13 08:51:22;;;;;;;71.13;36.17;;;-4.00;99.90;;;;;;5047660;28;20033;-56
2022/12/13 08:53:48;;;;;;;66.75;34.80;;;-3.50;99.90;;;;;;5049077;28;20044;-56
2022/12/13 08:56:14;;;;;;;66.63;34.90;;;-3.10;99.90;;;;;;5047277;28;20043;-55
2022/12/13 08:58:40;;;;;;;66.72;34.17;;;-2.70;99.90;;;;;;5049433;28;20033;-56
2022/12/13 09:01:06;;;;;;;63.67;32.97;;;-2.30;99.90;;;;;;5048059;28;20056;-55
2022/12/13 09:03:32;;;;;;;62.50;32.35;;;-1.90;99.90;;;;;;5050034;28;20060;-53
2022/12/13 09:06:09;;;;;;;58.60;31.97;;;-1.60;99.90;;;;;;5047709;28;20032;-55
2022/12/13 09:08:35;;;;;;;68.10;33.25;;;-1.20;99.90;;;;;;5039843;28;20797;-55
2022/12/13 09:11:01;;;;;;;59.92;31.98;;;-0.90;99.90;;;;;;5044745;28;20037;-56
2022/12/13 09:13:30;;;;;;;59.92;33.47;;;-0.50;99.90;;;;;;5045561;28;20036;-55
2022/12/13 09:15:55;;;;;;;54.95;33.15;;;-0.20;99.90;;;;;;5045761;28;20045;-55
2022/12/13 09:18:21;;;;;;;56.80;33.23;;;0.10;99.90;;;;;;5045507;28;20516;-57
2022/12/13 09:20:46;;;;;;;50.33;32.20;;;0.40;99.90;;;;;;5038329;28;20611;-56
2022/12/13 09:23:12;;;;;;;56.65;34.63;;;0.60;99.90;;;;;;5041919;28;20216;-52
2022/12/13 09:25:38;;;;;;;53.97;34.77;;;0.80;99.90;;;;;;5044621;28;20029;-58
2022/12/13 09:28:06;;;;;;;55.13;32.27;;;0.90;99.90;;;;;;5045818;28;20116;-57
2022/12/13 09:30:32;;;;;;;54.22;33.78;;;1.20;99.90;;;;;;5046223;28;20048;-57
2022/12/13 09:32:58;;;;;;;55.65;35.13;;;1.50;99.90;;;;;;5045831;28;20028;-57
2022/12/13 09:35:23;;;;;;;54.60;33.40;;;1.80;99.90;;;;;;5044655;28;20337;-56
2022/12/13 09:37:49;;;;;;;51.10;31.80;;;2.10;99.90;;;;;;5045294;28;20413;-57
2022/12/13 09:40:21;;;;;;;55.08;32.60;;;2.40;99.90;;;;;;5044528;28;20035;-56
2022/12/13 09:42:51;;;;;;;51.65;31.48;;;2.80;99.90;;;;;;5045748;28;20029;-56
2022/12/13 09:45:16;;;;;;;48.95;31.67;;;3.20;99.90;;;;;;5043457;28;20049;-56
2022/12/13 09:47:44;;;;;;;51.67;34.00;;;3.40;99.90;;;;;;5045981;28;20048;-55
2022/12/13 09:50:19;;;;;;;51.20;33.47;;;3.70;99.90;;;;;;5044879;28;20148;-56
2022/12/13 09:52:45;;;;;;;49.00;31.55;;;3.90;99.90;;;;;;5045259;28;20048;-57
2022/12/13 09:55:28;;;;;;;50.22;33.38;;;4.00;99.90;;;;;;5043810;28;20040;-56
2022/12/13 09:57:54;;;;;;;52.90;33.17;;;3.90;99.90;;;;;;5046037;28;20433;-57
2022/12/13 10:00:32;;;;;;;48.47;32.47;;;3.70;99.90;;;;;;5044208;28;20712;-57
2022/12/13 10:02:59;;;;;;;56.63;33.63;;;3.50;99.90;;;;;;5044230;28;20443;-55
2022/12/13 10:05:24;;;;;;;;;;;3.60;99.90;;;;;;5045807;28;20134;-54
2022/12/13 10:07:52;;;;;;;52.35;32.58;;;3.80;99.90;;;;;;5045628;28;19925;-57
2022/12/13 10:10:18;;;;;;;46.97;31.55;;;4.20;99.90;;;;;;5045615;28;20044;-56
2022/12/13 10:12:46;;;;;;;48.97;31.40;;;4.50;99.90;;;;;;5045058;28;20111;-56
2022/12/13 10:15:18;;;;;;;47.72;32.08;;;4.80;99.90;;;;;;5044631;28;20083;-55
2022/12/13 10:17:47;;;;;;;46.90;32.00;;;5.00;99.90;;;;;;5044498;28;20041;-55
2022/12/13 10:20:20;;;;;;;45.05;31.95;;;5.20;99.90;;;;;;5041067;28;20033;-55
2022/12/13 10:22:46;;;;;;;43.60;29.35;;;5.30;99.90;;;;;;5041963;28;20041;-55
2022/12/13 10:25:13;;;;;;;48.00;32.33;;;5.20;99.90;;;;;;5044985;28;20115;-54
2022/12/13 10:27:44;;;;;;;46.40;31.60;;;5.10;99.90;;;;;;5044228;28;20116;-57
2022/12/13 10:30:24;;;;;;;43.03;30.40;;;5.30;99.90;;;;;;5044931;28;20121;-56
2022/12/13 10:32:58;;;;;;;52.97;32.92;;;5.60;99.90;;;;;;5043579;28;20048;-58
2022/12/13 10:35:36;;;;;;;44.40;31.13;;;5.90;99.90;;;;;;5038554;28;20945;-56
2022/12/13 10:38:25;;;;;;;49.25;31.80;;;6.20;99.80;;;;;;5032344;28;20090;-54
2022/12/13 10:40:50;;;;;;;44.90;30.23;;;6.50;97.80;;;;;;5045216;28;20068;-55
2022/12/13 10:43:23;;;;;;;44.92;31.10;;;6.60;99.30;;;;;;5044251;28;20072;-57
2022/12/13 10:46:00;;;;;;;42.33;30.65;;;6.90;98.30;;;;;;5044849;28;20045;-58
2022/12/13 10:48:35;;;;;;;41.08;29.50;;;7.10;97.80;;;;;;5044432;28;20235;-57
2022/12/13 10:51:10;;;;;;;41.78;29.73;;;7.00;97.40;;;;;;5045134;28;20119;-56
2022/12/13 10:53:57;;;;;;;48.35;31.90;;;6.90;98.00;;;;;;5044308;28;20041;-57
2022/12/13 10:56:37;;;;;;;42.83;29.88;;;6.70;98.10;;;;;;5045503;28;20147;-57
2022/12/13 10:59:21;;;;;;;43.88;30.98;;;6.50;98.30;;;;;;5042905;28;20048;-58
2022/12/13 11:01:47;;;;;;;46.17;31.58;;;6.40;98.30;;;;;;5061464;28;20120;-53
2022/12/13 11:04:28;;;;;;;45.83;31.92;;;6.50;98.00;;;;;;5043306;28;20518;-53
2022/12/13 11:06:55;;;;;;;44.45;31.27;;;6.60;96.70;;;;;;5042857;28;20037;-56
2022/12/13 11:09:31;;;;;;;47.60;33.80;;;6.80;97.00;;;;;;5041253;28;20444;-56
2022/12/13 11:12:19;;;;;;;51.80;32.55;;;7.00;97.30;;;;;;5048726;28;20585;-56
2022/12/13 11:14:58;;;;;;;48.72;32.80;;;7.10;96.30;;;;;;5048201;28;20381;-56
2022/12/13 11:17:26;;;;;;;44.83;31.95;;;7.30;96.20;;;;;;5047460;28;20150;-56
2022/12/13 11:19:55;;;;;;;46.15;32.70;;;7.50;95.90;;;;;;5047287;28;20051;-56
2022/12/13 11:22:25;;;;;;;45.03;31.95;;;7.60;96.80;;;;;;5039306;28;20059;-58
2022/12/13 11:24:55;;;;;;;44.85;32.50;;;7.60;95.80;;;;;;5046130;28;20036;-56
2022/12/13 11:27:43;;;;;;;43.97;30.65;;;7.90;97.20;;;;;;5042063;28;20052;-57
2022/12/13 11:30:21;;;;;;;42.20;30.80;;;8.20;93.90;;;;;;5038798;28;20260;-55
2022/12/13 11:33:24;;;;;;;47.50;30.67;;;8.50;93.10;;;;;;5044009;28;20025;-57
2022/12/13 11:35:52;;;;;;;44.85;30.83;;;8.70;92.80;;;;;;5046276;28;20469;-57
2022/12/13 11:38:40;;;;;;;40.20;30.70;;;9.00;95.40;;;;;;5044615;28;20055;-56
2022/12/13 11:41:16;;;;;;;41.47;29.30;;;9.10;93.40;;;;;;5040060;28;20029;-54
2022/12/13 11:43:57;;;;;;;45.55;31.77;;;9.30;92.70;;;;;;5043764;28;20106;-57
2022/12/13 11:46:39;;;;;;;39.78;29.83;;;9.40;92.40;;;;;;5047566;28;20037;-56
2022/12/13 11:49:21;;;;;;;47.22;30.58;;;9.70;93.20;;;;;;5034474;28;20387;-56
2022/12/13 11:51:56;;;;;;;37.63;29.05;;;10.10;92.90;;;;;;5045181;28;20116;-54
2022/12/13 11:54:34;;;;;;;36.53;26.58;;;10.40;90.60;;;;;;5034366;28;20037;-55
2022/12/13 11:57:06;;;;;;;37.13;28.17;;;10.40;90.70;;;;;;5047376;28;20055;-57
2022/12/13 11:59:35;;;;;;;35.00;26.85;;;10.20;90.50;;;;;;5038318;28;20048;-56
2022/12/13 12:02:25;;;;;;;33.25;27.05;;;10.30;87.80;;;;;;5047285;28;20424;-57
2022/12/13 12:04:53;;;;;;;38.42;27.85;;;10.80;88.50;;;;;;5046927;28;20049;-64
2022/12/13 12:07:37;;;;;;;35.67;26.35;;;11.00;88.10;;;;;;5046717;28;20243;-57
2022/12/13 12:10:23;;;;;;;32.83;25.95;;;11.30;87.70;;;;;;5047343;28;20133;-58
2022/12/13 12:12:56;;;;;;;36.40;26.67;;;11.60;86.50;;;;;;5043187;28;20065;-57
2022/12/13 12:15:27;;;;;;;32.45;25.65;;;11.50;84.40;;;;;;5029322;28;20043;-56
2022/12/13 12:17:54;;;;;;;32.20;25.75;;;11.80;84.20;;;;;;5043226;28;20478;-56
2022/12/13 12:20:42;;;;;;;34.67;25.25;;;11.80;84.10;;;;;;5052724;28;20119;-54
2022/12/13 12:23:27;;;;;;;33.30;26.27;;;12.30;82.00;;;;;;5039898;28;20045;-56
2022/12/13 12:26:07;;;;;;;34.25;26.58;;;12.60;75.40;;;;;;5046856;28;20044;-54
2022/12/13 12:28:35;;;;;;;33.13;25.73;;;13.00;74.60;;;;;;5043621;28;20029;-58
2022/12/13 12:31:35;;;;;;;31.67;25.35;;;13.40;73.40;;;;;;5047602;28;20041;-56
2022/12/13 12:34:32;;;;;;;33.80;25.75;;;13.60;73.30;;;;;;5036452;28;20473;-57
2022/12/13 12:37:18;;;;;;;37.05;26.17;;;13.60;74.20;;;;;;5039177;28;20032;-57
2022/12/13 12:39:53;;;;;;;38.10;28.80;;;13.70;69.50;;;;;;5045656;28;20060;-58
2022/12/13 12:42:46;;;;;;;30.00;25.35;;;13.80;71.30;;;;;;5046337;28;20048;-56
2022/12/13 12:45:27;;;;;;;33.42;25.20;;;14.00;69.80;;;;;;5026807;28;20056;-57
2022/12/13 12:48:16;;;;;;;32.90;25.88;;;13.70;66.10;;;;;;5045620;28;20036;-57
2022/12/13 12:51:04;;;;;;;32.03;25.25;;;14.20;69.90;;;;;;5047361;28;20040;-57